sensor_id;sensor_type;location;lat;lon;timestamp;P1;durP1;ratioP1;P2;durP2;ratioP2
18125;SDS011;53956;52.442;13.284;2023-08-06T00:00:14;9.00;;;7.57;;
18125;SDS011;53956;52.442;13.284;2023-08-06T00:02:41;11.00;;;8.38;;
18125;SDS011;53956;52.442;13.284;2023-08-06T00:05:08;11.65;;;7.75;;
18125;SDS011;53956;52.442;13.284;2023-08-06T00:07:36;9.65;;;8.30;;
18125;SDS011;53956;52.442;13.284;2023-08-06T00:10:02;9.05;;;7.80;;
18125;SDS011;53956;52.442;13.284;2023-08-06T00:12:30;8.90;;;6.90;;
18125;SDS011;53956;52.442;13.284;2023-08-06T00:41:28;9.25;;;8.20;;
18125;SDS011;53956;52.442;13.284;2023-08-06T00:43:55;8.63;;;7.63;;
18125;SDS011;53956;52.442;13.284;2023-08-06T00:46:22;11.20;;;8.85;;
18125;SDS011;53956;52.442;13.284;2023-08-06T00:48:49;9.48;;;8.35;;
18125;SDS011;53956;52.442;13.284;2023-08-06T00:51:17;9.30;;;8.20;;
18125;SDS011;53956;52.442;13.284;2023-08-06T00:53:43;8.25;;;7.45;;
18125;SDS011;53956;52.442;13.284;2023-08-06T00:56:10;10.55;;;8.35;;
18125;SDS011;53956;52.442;13.284;2023-08-06T01:01:15;11.52;;;9.27;;
18125;SDS011;53956;52.442;13.284;2023-08-06T01:03:42;11.52;;;8.20;;
18125;SDS011;53956;52.442;13.284;2023-08-06T01:14:06;8.93;;;7.70;;
18125;SDS011;53956;52.442;13.284;2023-08-06T01:16:42;9.55;;;7.47;;
18125;SDS011;53956;52.442;13.284;2023-08-06T01:19:15;8.60;;;7.72;;
18125;SDS011;53956;52.442;13.284;2023-08-06T01:21:43;9.18;;;8.23;;
18125;SDS011;53956;52.442;13.284;2023-08-06T01:24:10;9.23;;;8.18;;
18125;SDS011;53956;52.442;13.284;2023-08-06T01:26:38;9.93;;;7.97;;
18125;SDS011;53956;52.442;13.284;2023-08-06T01:29:11;9.15;;;7.45;;
18125;SDS011;53956;52.442;13.284;2023-08-06T01:32:08;9.32;;;7.28;;
18125;SDS011;53956;52.442;13.284;2023-08-06T01:34:41;7.95;;;7.25;;
18125;SDS011;53956;52.442;13.284;2023-08-06T01:42:57;8.98;;;7.85;;
18125;SDS011;53956;52.442;13.284;2023-08-06T01:45:24;8.05;;;7.25;;
18125;SDS011;53956;52.442;13.284;2023-08-06T01:47:51;22.55;;;16.52;;
18125;SDS011;53956;52.442;13.284;2023-08-06T01:50:17;9.35;;;7.43;;
18125;SDS011;53956;52.442;13.284;2023-08-06T01:52:44;9.68;;;7.72;;
18125;SDS011;53956;52.442;13.284;2023-08-06T01:55:11;9.25;;;7.60;;
18125;SDS011;53956;52.442;13.284;2023-08-06T02:00:30;7.22;;;6.53;;
18125;SDS011;53956;52.442;13.284;2023-08-06T02:02:56;7.90;;;7.10;;
18125;SDS011;53956;52.442;13.284;2023-08-06T02:05:23;7.75;;;6.78;;
18125;SDS011;53956;52.442;13.284;2023-08-06T02:07:50;7.85;;;7.05;;
18125;SDS011;53956;52.442;13.284;2023-08-06T02:10:17;8.13;;;6.30;;
18125;SDS011;53956;52.442;13.284;2023-08-06T02:45:05;8.43;;;7.45;;
18125;SDS011;53956;52.442;13.284;2023-08-06T02:47:33;11.10;;;7.75;;
18125;SDS011;53956;52.442;13.284;2023-08-06T02:50:00;8.88;;;7.78;;
18125;SDS011;53956;52.442;13.284;2023-08-06T02:52:29;8.60;;;7.75;;
18125;SDS011;53956;52.442;13.284;2023-08-06T02:54:55;7.97;;;7.18;;
18125;SDS011;53956;52.442;13.284;2023-08-06T03:10:44;8.40;;;7.40;;
18125;SDS011;53956;52.442;13.284;2023-08-06T03:13:12;9.20;;;7.40;;
18125;SDS011;53956;52.442;13.284;2023-08-06T03:15:39;10.07;;;7.60;;
18125;SDS011;53956;52.442;13.284;2023-08-06T03:18:09;8.60;;;7.15;;
18125;SDS011;53956;52.442;13.284;2023-08-06T03:28:44;8.07;;;7.28;;
18125;SDS011;53956;52.442;13.284;2023-08-06T03:31:11;8.32;;;6.88;;
18125;SDS011;53956;52.442;13.284;2023-08-06T03:33:41;8.57;;;7.13;;
18125;SDS011;53956;52.442;13.284;2023-08-06T03:36:12;7.75;;;6.95;;
18125;SDS011;53956;52.442;13.284;2023-08-06T03:38:40;8.15;;;7.18;;
18125;SDS011;53956;52.442;13.284;2023-08-06T03:41:08;8.30;;;7.00;;
18125;SDS011;53956;52.442;13.284;2023-08-06T03:51:57;7.65;;;6.72;;
18125;SDS011;53956;52.442;13.284;2023-08-06T03:54:41;7.00;;;6.30;;
18125;SDS011;53956;52.442;13.284;2023-08-06T04:08:18;6.57;;;5.95;;
18125;SDS011;53956;52.442;13.284;2023-08-06T04:26:58;8.63;;;5.72;;
18125;SDS011;53956;52.442;13.284;2023-08-06T04:29:40;6.45;;;5.53;;
18125;SDS011;53956;52.442;13.284;2023-08-06T04:40:10;7.97;;;6.22;;
18125;SDS011;53956;52.442;13.284;2023-08-06T04:48:04;7.05;;;5.78;;
18125;SDS011;53956;52.442;13.284;2023-08-06T04:58:40;7.55;;;6.38;;
18125;SDS011;53956;52.442;13.284;2023-08-06T05:01:07;7.35;;;6.30;;
18125;SDS011;53956;52.442;13.284;2023-08-06T05:03:35;7.05;;;6.00;;
18125;SDS011;53956;52.442;13.284;2023-08-06T05:06:02;8.65;;;6.22;;
18125;SDS011;53956;52.442;13.284;2023-08-06T05:08:28;8.70;;;6.63;;
18125;SDS011;53956;52.442;13.284;2023-08-06T05:11:05;8.18;;;6.65;;
18125;SDS011;53956;52.442;13.284;2023-08-06T05:13:39;9.65;;;8.00;;
18125;SDS011;53956;52.442;13.284;2023-08-06T05:16:05;8.55;;;6.90;;
18125;SDS011;53956;52.442;13.284;2023-08-06T05:18:32;7.28;;;5.93;;
18125;SDS011;53956;52.442;13.284;2023-08-06T05:21:01;8.55;;;6.70;;
18125;SDS011;53956;52.442;13.284;2023-08-06T05:23:27;8.15;;;6.85;;
18125;SDS011;53956;52.442;13.284;2023-08-06T05:25:54;7.55;;;6.53;;
18125;SDS011;53956;52.442;13.284;2023-08-06T05:41:47;7.10;;;5.43;;
18125;SDS011;53956;52.442;13.284;2023-08-06T05:44:13;6.97;;;5.55;;
18125;SDS011;53956;52.442;13.284;2023-08-06T05:46:40;6.20;;;5.60;;
18125;SDS011;53956;52.442;13.284;2023-08-06T05:49:06;6.90;;;6.20;;
18125;SDS011;53956;52.442;13.284;2023-08-06T05:51:33;7.30;;;5.78;;
18125;SDS011;53956;52.442;13.284;2023-08-06T05:54:00;6.88;;;5.80;;
18125;SDS011;53956;52.442;13.284;2023-08-06T05:56:26;7.25;;;6.03;;
18125;SDS011;53956;52.442;13.284;2023-08-06T06:12:19;7.22;;;6.03;;
18125;SDS011;53956;52.442;13.284;2023-08-06T06:15:07;6.18;;;5.60;;
18125;SDS011;53956;52.442;13.284;2023-08-06T06:17:34;8.00;;;6.15;;
18125;SDS011;53956;52.442;13.284;2023-08-06T06:20:01;6.25;;;5.47;;
18125;SDS011;53956;52.442;13.284;2023-08-06T06:22:29;6.82;;;5.95;;
18125;SDS011;53956;52.442;13.284;2023-08-06T06:24:55;7.55;;;5.70;;
18125;SDS011;53956;52.442;13.284;2023-08-06T06:33:04;6.65;;;5.97;;
18125;SDS011;53956;52.442;13.284;2023-08-06T06:59:23;7.00;;;6.05;;
18125;SDS011;53956;52.442;13.284;2023-08-06T07:01:49;6.80;;;5.82;;
18125;SDS011;53956;52.442;13.284;2023-08-06T07:04:16;6.72;;;5.40;;
18125;SDS011;53956;52.442;13.284;2023-08-06T07:06:42;5.60;;;5.10;;
18125;SDS011;53956;52.442;13.284;2023-08-06T07:09:15;6.70;;;6.07;;
18125;SDS011;53956;52.442;13.284;2023-08-06T07:11:45;7.10;;;6.00;;
18125;SDS011;53956;52.442;13.284;2023-08-06T07:30:40;7.57;;;6.35;;
18125;SDS011;53956;52.442;13.284;2023-08-06T07:33:07;7.85;;;6.75;;
18125;SDS011;53956;52.442;13.284;2023-08-06T07:35:34;7.65;;;6.95;;
18125;SDS011;53956;52.442;13.284;2023-08-06T07:38:02;7.70;;;6.88;;
18125;SDS011;53956;52.442;13.284;2023-08-06T07:40:28;10.15;;;6.88;;
18125;SDS011;53956;52.442;13.284;2023-08-06T07:48:20;7.82;;;7.03;;
18125;SDS011;53956;52.442;13.284;2023-08-06T08:28:53;7.60;;;6.72;;
18125;SDS011;53956;52.442;13.284;2023-08-06T08:31:19;7.93;;;7.13;;
18125;SDS011;53956;52.442;13.284;2023-08-06T08:33:46;7.78;;;6.97;;
18125;SDS011;53956;52.442;13.284;2023-08-06T08:36:13;8.05;;;7.25;;
18125;SDS011;53956;52.442;13.284;2023-08-06T08:38:39;8.02;;;7.22;;
18125;SDS011;53956;52.442;13.284;2023-08-06T08:41:06;7.78;;;6.97;;
18125;SDS011;53956;52.442;13.284;2023-08-06T08:43:36;8.75;;;7.88;;
18125;SDS011;53956;52.442;13.284;2023-08-06T08:46:42;8.60;;;7.43;;
18125;SDS011;53956;52.442;13.284;2023-08-06T08:49:55;8.73;;;7.70;;
18125;SDS011;53956;52.442;13.284;2023-08-06T08:52:54;9.18;;;7.80;;
18125;SDS011;53956;52.442;13.284;2023-08-06T08:55:37;8.77;;;7.80;;
18125;SDS011;53956;52.442;13.284;2023-08-06T09:18:10;8.70;;;7.80;;
18125;SDS011;53956;52.442;13.284;2023-08-06T09:20:37;9.07;;;8.15;;
18125;SDS011;53956;52.442;13.284;2023-08-06T09:23:06;9.45;;;7.35;;
18125;SDS011;53956;52.442;13.284;2023-08-06T09:25:35;8.05;;;7.20;;
18125;SDS011;53956;52.442;13.284;2023-08-06T09:36:11;8.35;;;7.30;;
18125;SDS011;53956;52.442;13.284;2023-08-06T09:44:01;9.23;;;8.30;;
18125;SDS011;53956;52.442;13.284;2023-08-06T09:46:28;8.80;;;7.90;;
18125;SDS011;53956;52.442;13.284;2023-08-06T09:48:57;9.90;;;8.10;;
18125;SDS011;53956;52.442;13.284;2023-08-06T09:51:25;9.00;;;7.70;;
18125;SDS011;53956;52.442;13.284;2023-08-06T09:53:52;9.55;;;8.23;;
18125;SDS011;53956;52.442;13.284;2023-08-06T09:56:19;8.85;;;7.97;;
18125;SDS011;53956;52.442;13.284;2023-08-06T10:13:14;9.77;;;8.13;;
18125;SDS011;53956;52.442;13.284;2023-08-06T10:15:42;9.43;;;8.52;;
18125;SDS011;53956;52.442;13.284;2023-08-06T10:18:09;9.00;;;8.10;;
18125;SDS011;53956;52.442;13.284;2023-08-06T10:20:38;12.35;;;8.60;;
18125;SDS011;53956;52.442;13.284;2023-08-06T10:23:05;9.75;;;8.00;;
18125;SDS011;53956;52.442;13.284;2023-08-06T10:25:33;11.15;;;8.48;;
18125;SDS011;53956;52.442;13.284;2023-08-06T10:44:13;13.07;;;10.13;;
18125;SDS011;53956;52.442;13.284;2023-08-06T10:46:40;11.90;;;9.18;;
18125;SDS011;53956;52.442;13.284;2023-08-06T10:49:06;10.55;;;8.70;;
18125;SDS011;53956;52.442;13.284;2023-08-06T10:51:33;11.50;;;10.02;;
18125;SDS011;53956;52.442;13.284;2023-08-06T10:54:01;11.30;;;9.50;;
18125;SDS011;53956;52.442;13.284;2023-08-06T10:56:28;10.48;;;9.38;;
18125;SDS011;53956;52.442;13.284;2023-08-06T10:58:56;11.60;;;9.07;;
18125;SDS011;53956;52.442;13.284;2023-08-06T11:01:24;9.88;;;8.73;;
18125;SDS011;53956;52.442;13.284;2023-08-06T11:03:55;9.38;;;8.45;;
18125;SDS011;53956;52.442;13.284;2023-08-06T11:06:22;10.75;;;9.23;;
18125;SDS011;53956;52.442;13.284;2023-08-06T11:08:50;10.55;;;9.45;;
18125;SDS011;53956;52.442;13.284;2023-08-06T11:30:09;12.82;;;9.15;;
18125;SDS011;53956;52.442;13.284;2023-08-06T11:32:44;10.38;;;9.15;;
18125;SDS011;53956;52.442;13.284;2023-08-06T11:35:12;10.40;;;9.20;;
18125;SDS011;53956;52.442;13.284;2023-08-06T11:37:43;9.73;;;8.73;;
18125;SDS011;53956;52.442;13.284;2023-08-06T11:40:11;9.45;;;8.50;;
18125;SDS011;53956;52.442;13.284;2023-08-06T12:30:27;8.77;;;7.90;;
18125;SDS011;53956;52.442;13.284;2023-08-06T12:32:54;9.43;;;8.43;;
18125;SDS011;53956;52.442;13.284;2023-08-06T12:35:21;10.70;;;7.80;;
18125;SDS011;53956;52.442;13.284;2023-08-06T12:37:48;9.23;;;8.23;;
18125;SDS011;53956;52.442;13.284;2023-08-06T12:40:16;8.48;;;7.50;;
18125;SDS011;53956;52.442;13.284;2023-08-06T12:42:43;8.93;;;7.43;;
18125;SDS011;53956;52.442;13.284;2023-08-06T12:45:09;10.20;;;7.80;;
18125;SDS011;53956;52.442;13.284;2023-08-06T12:47:37;12.68;;;8.35;;
18125;SDS011;53956;52.442;13.284;2023-08-06T12:50:04;10.07;;;8.38;;
18125;SDS011;53956;52.442;13.284;2023-08-06T12:52:31;10.52;;;7.28;;
18125;SDS011;53956;52.442;13.284;2023-08-06T12:54:58;9.95;;;6.43;;
18125;SDS011;53956;52.442;13.284;2023-08-06T12:57:25;9.45;;;6.22;;
18125;SDS011;53956;52.442;13.284;2023-08-06T12:59:52;7.55;;;5.82;;
18125;SDS011;53956;52.442;13.284;2023-08-06T13:02:19;11.05;;;5.75;;
18125;SDS011;53956;52.442;13.284;2023-08-06T13:04:47;10.98;;;6.05;;
18125;SDS011;53956;52.442;13.284;2023-08-06T13:07:14;8.75;;;5.85;;
18125;SDS011;53956;52.442;13.284;2023-08-06T13:09:40;9.48;;;5.28;;
18125;SDS011;53956;52.442;13.284;2023-08-06T13:12:07;9.32;;;5.38;;
18125;SDS011;53956;52.442;13.284;2023-08-06T13:14:34;7.40;;;4.80;;
18125;SDS011;53956;52.442;13.284;2023-08-06T13:17:00;6.40;;;5.25;;
18125;SDS011;53956;52.442;13.284;2023-08-06T13:19:27;6.45;;;4.80;;
18125;SDS011;53956;52.442;13.284;2023-08-06T13:22:02;8.32;;;4.82;;
18125;SDS011;53956;52.442;13.284;2023-08-06T13:24:31;8.40;;;4.97;;
18125;SDS011;53956;52.442;13.284;2023-08-06T13:26:58;7.93;;;4.85;;
18125;SDS011;53956;52.442;13.284;2023-08-06T13:29:25;6.95;;;4.57;;
18125;SDS011;53956;52.442;13.284;2023-08-06T13:31:52;5.38;;;4.30;;
18125;SDS011;53956;52.442;13.284;2023-08-06T13:34:19;6.47;;;4.57;;
18125;SDS011;53956;52.442;13.284;2023-08-06T13:36:46;7.03;;;4.93;;
18125;SDS011;53956;52.442;13.284;2023-08-06T13:39:14;5.85;;;4.88;;
18125;SDS011;53956;52.442;13.284;2023-08-06T13:41:42;7.15;;;4.78;;
18125;SDS011;53956;52.442;13.284;2023-08-06T13:44:09;5.53;;;4.72;;
18125;SDS011;53956;52.442;13.284;2023-08-06T13:46:39;8.68;;;5.28;;
18125;SDS011;53956;52.442;13.284;2023-08-06T13:49:05;7.03;;;5.20;;
18125;SDS011;53956;52.442;13.284;2023-08-06T13:51:32;6.82;;;4.97;;
18125;SDS011;53956;52.442;13.284;2023-08-06T13:54:00;5.88;;;4.72;;
18125;SDS011;53956;52.442;13.284;2023-08-06T13:56:28;7.25;;;5.55;;
18125;SDS011;53956;52.442;13.284;2023-08-06T13:58:55;7.45;;;5.80;;
18125;SDS011;53956;52.442;13.284;2023-08-06T14:01:22;9.10;;;5.45;;
18125;SDS011;53956;52.442;13.284;2023-08-06T14:03:49;7.85;;;5.57;;
18125;SDS011;53956;52.442;13.284;2023-08-06T14:06:15;7.45;;;5.00;;
18125;SDS011;53956;52.442;13.284;2023-08-06T14:08:42;7.55;;;5.85;;
18125;SDS011;53956;52.442;13.284;2023-08-06T14:11:09;7.47;;;6.20;;
18125;SDS011;53956;52.442;13.284;2023-08-06T14:13:37;7.60;;;6.05;;
18125;SDS011;53956;52.442;13.284;2023-08-06T14:16:03;8.77;;;6.10;;
18125;SDS011;53956;52.442;13.284;2023-08-06T14:18:30;10.00;;;7.18;;
18125;SDS011;53956;52.442;13.284;2023-08-06T14:20:56;9.40;;;6.93;;
18125;SDS011;53956;52.442;13.284;2023-08-06T14:23:23;9.18;;;7.20;;
18125;SDS011;53956;52.442;13.284;2023-08-06T14:25:50;11.32;;;7.68;;
18125;SDS011;53956;52.442;13.284;2023-08-06T14:28:16;12.02;;;8.15;;
18125;SDS011;53956;52.442;13.284;2023-08-06T14:30:44;12.88;;;7.50;;
18125;SDS011;53956;52.442;13.284;2023-08-06T14:33:11;11.60;;;8.50;;
18125;SDS011;53956;52.442;13.284;2023-08-06T14:35:38;10.25;;;8.13;;
18125;SDS011;53956;52.442;13.284;2023-08-06T14:38:04;10.85;;;8.07;;
18125;SDS011;53956;52.442;13.284;2023-08-06T14:40:31;11.00;;;7.78;;
18125;SDS011;53956;52.442;13.284;2023-08-06T14:43:00;10.88;;;7.85;;
18125;SDS011;53956;52.442;13.284;2023-08-06T14:45:27;9.45;;;7.15;;
18125;SDS011;53956;52.442;13.284;2023-08-06T14:47:55;10.10;;;7.15;;
18125;SDS011;53956;52.442;13.284;2023-08-06T14:50:22;11.82;;;7.22;;
18125;SDS011;53956;52.442;13.284;2023-08-06T14:52:49;9.77;;;6.60;;
18125;SDS011;53956;52.442;13.284;2023-08-06T14:55:17;7.70;;;6.85;;
18125;SDS011;53956;52.442;13.284;2023-08-06T14:57:49;9.40;;;6.43;;
18125;SDS011;53956;52.442;13.284;2023-08-06T15:00:15;8.82;;;6.65;;
18125;SDS011;53956;52.442;13.284;2023-08-06T15:02:42;8.95;;;6.53;;
18125;SDS011;53956;52.442;13.284;2023-08-06T15:05:10;10.95;;;7.05;;
18125;SDS011;53956;52.442;13.284;2023-08-06T15:07:37;11.48;;;7.15;;
18125;SDS011;53956;52.442;13.284;2023-08-06T15:10:04;6.95;;;6.25;;
18125;SDS011;53956;52.442;13.284;2023-08-06T15:12:31;8.68;;;6.45;;
18125;SDS011;53956;52.442;13.284;2023-08-06T15:14:58;8.82;;;6.00;;
18125;SDS011;53956;52.442;13.284;2023-08-06T15:17:25;6.18;;;5.32;;
18125;SDS011;53956;52.442;13.284;2023-08-06T15:19:55;7.15;;;5.60;;
18125;SDS011;53956;52.442;13.284;2023-08-06T15:22:23;6.97;;;5.30;;
18125;SDS011;53956;52.442;13.284;2023-08-06T15:24:50;7.35;;;5.57;;
18125;SDS011;53956;52.442;13.284;2023-08-06T15:27:17;6.00;;;5.07;;
18125;SDS011;53956;52.442;13.284;2023-08-06T15:29:43;5.93;;;5.05;;
18125;SDS011;53956;52.442;13.284;2023-08-06T15:32:10;6.95;;;5.15;;
18125;SDS011;53956;52.442;13.284;2023-08-06T15:34:38;6.68;;;4.88;;
18125;SDS011;53956;52.442;13.284;2023-08-06T15:37:05;5.43;;;4.85;;
18125;SDS011;53956;52.442;13.284;2023-08-06T15:39:34;6.93;;;5.55;;
18125;SDS011;53956;52.442;13.284;2023-08-06T15:42:00;6.95;;;5.70;;
18125;SDS011;53956;52.442;13.284;2023-08-06T15:44:28;6.97;;;6.28;;
18125;SDS011;53956;52.442;13.284;2023-08-06T15:46:54;6.85;;;5.80;;
18125;SDS011;53956;52.442;13.284;2023-08-06T15:49:21;6.85;;;5.70;;
18125;SDS011;53956;52.442;13.284;2023-08-06T15:51:48;9.02;;;5.97;;
18125;SDS011;53956;52.442;13.284;2023-08-06T15:54:14;7.53;;;5.80;;
18125;SDS011;53956;52.442;13.284;2023-08-06T15:56:42;10.30;;;7.28;;
18125;SDS011;53956;52.442;13.284;2023-08-06T15:59:25;10.70;;;7.63;;
18125;SDS011;53956;52.442;13.284;2023-08-06T16:01:53;12.90;;;8.07;;
18125;SDS011;53956;52.442;13.284;2023-08-06T16:04:22;8.13;;;7.05;;
18125;SDS011;53956;52.442;13.284;2023-08-06T16:06:49;7.38;;;6.18;;
18125;SDS011;53956;52.442;13.284;2023-08-06T16:09:16;8.55;;;5.78;;
18125;SDS011;53956;52.442;13.284;2023-08-06T16:11:44;7.63;;;6.07;;
18125;SDS011;53956;52.442;13.284;2023-08-06T16:14:11;6.82;;;6.00;;
18125;SDS011;53956;52.442;13.284;2023-08-06T16:16:38;9.50;;;6.18;;
18125;SDS011;53956;52.442;13.284;2023-08-06T16:19:04;6.93;;;5.70;;
18125;SDS011;53956;52.442;13.284;2023-08-06T16:21:31;7.63;;;5.43;;
18125;SDS011;53956;52.442;13.284;2023-08-06T16:23:57;6.03;;;5.13;;
18125;SDS011;53956;52.442;13.284;2023-08-06T16:26:24;8.10;;;5.53;;
18125;SDS011;53956;52.442;13.284;2023-08-06T16:28:52;7.45;;;5.65;;
18125;SDS011;53956;52.442;13.284;2023-08-06T16:31:18;8.38;;;5.38;;
18125;SDS011;53956;52.442;13.284;2023-08-06T16:33:45;7.10;;;5.90;;
18125;SDS011;53956;52.442;13.284;2023-08-06T16:36:12;8.38;;;6.00;;
18125;SDS011;53956;52.442;13.284;2023-08-06T16:38:39;7.43;;;6.00;;
18125;SDS011;53956;52.442;13.284;2023-08-06T16:41:05;6.53;;;5.70;;
18125;SDS011;53956;52.442;13.284;2023-08-06T16:43:32;9.45;;;6.15;;
18125;SDS011;53956;52.442;13.284;2023-08-06T16:46:00;9.05;;;6.22;;
18125;SDS011;53956;52.442;13.284;2023-08-06T16:48:27;8.88;;;6.25;;
18125;SDS011;53956;52.442;13.284;2023-08-06T16:50:55;9.15;;;6.00;;
18125;SDS011;53956;52.442;13.284;2023-08-06T16:53:25;8.23;;;6.40;;
18125;SDS011;53956;52.442;13.284;2023-08-06T16:55:52;9.60;;;6.25;;
18125;SDS011;53956;52.442;13.284;2023-08-06T16:58:19;7.18;;;6.00;;
18125;SDS011;53956;52.442;13.284;2023-08-06T17:00:46;7.18;;;5.75;;
18125;SDS011;53956;52.442;13.284;2023-08-06T17:03:15;5.93;;;5.30;;
18125;SDS011;53956;52.442;13.284;2023-08-06T17:05:42;7.68;;;5.57;;
18125;SDS011;53956;52.442;13.284;2023-08-06T17:08:10;7.63;;;5.88;;
18125;SDS011;53956;52.442;13.284;2023-08-06T17:10:36;9.23;;;6.25;;
18125;SDS011;53956;52.442;13.284;2023-08-06T17:13:04;8.38;;;5.93;;
18125;SDS011;53956;52.442;13.284;2023-08-06T17:15:30;7.07;;;5.38;;
18125;SDS011;53956;52.442;13.284;2023-08-06T17:17:58;7.60;;;5.95;;
18125;SDS011;53956;52.442;13.284;2023-08-06T17:20:26;7.68;;;5.53;;
18125;SDS011;53956;52.442;13.284;2023-08-06T17:22:53;7.13;;;5.50;;
18125;SDS011;53956;52.442;13.284;2023-08-06T17:25:19;7.18;;;5.38;;
18125;SDS011;53956;52.442;13.284;2023-08-06T17:27:47;7.15;;;5.43;;
18125;SDS011;53956;52.442;13.284;2023-08-06T17:30:15;6.00;;;5.07;;
18125;SDS011;53956;52.442;13.284;2023-08-06T17:32:42;8.70;;;5.80;;
18125;SDS011;53956;52.442;13.284;2023-08-06T17:35:08;9.70;;;5.35;;
18125;SDS011;53956;52.442;13.284;2023-08-06T17:37:36;7.82;;;5.00;;
18125;SDS011;53956;52.442;13.284;2023-08-06T17:40:03;7.22;;;4.78;;
18125;SDS011;53956;52.442;13.284;2023-08-06T17:42:32;8.75;;;4.78;;
18125;SDS011;53956;52.442;13.284;2023-08-06T17:44:58;6.72;;;4.68;;
18125;SDS011;53956;52.442;13.284;2023-08-06T17:47:25;7.88;;;4.82;;
18125;SDS011;53956;52.442;13.284;2023-08-06T17:49:52;9.43;;;4.45;;
18125;SDS011;53956;52.442;13.284;2023-08-06T17:52:18;7.28;;;4.38;;
18125;SDS011;53956;52.442;13.284;2023-08-06T17:54:46;7.03;;;4.40;;
18125;SDS011;53956;52.442;13.284;2023-08-06T17:57:13;6.30;;;4.43;;
18125;SDS011;53956;52.442;13.284;2023-08-06T17:59:40;6.13;;;4.28;;
18125;SDS011;53956;52.442;13.284;2023-08-06T18:02:06;6.65;;;4.20;;
18125;SDS011;53956;52.442;13.284;2023-08-06T18:04:33;6.85;;;4.20;;
18125;SDS011;53956;52.442;13.284;2023-08-06T18:06:59;8.95;;;4.68;;
18125;SDS011;53956;52.442;13.284;2023-08-06T18:09:26;7.32;;;4.55;;
18125;SDS011;53956;52.442;13.284;2023-08-06T18:11:54;7.13;;;4.70;;
18125;SDS011;53956;52.442;13.284;2023-08-06T18:14:20;7.57;;;4.82;;
18125;SDS011;53956;52.442;13.284;2023-08-06T18:16:47;6.63;;;4.40;;
18125;SDS011;53956;52.442;13.284;2023-08-06T18:19:14;6.53;;;4.40;;
18125;SDS011;53956;52.442;13.284;2023-08-06T18:21:41;8.85;;;4.70;;
18125;SDS011;53956;52.442;13.284;2023-08-06T18:24:08;7.55;;;4.70;;
18125;SDS011;53956;52.442;13.284;2023-08-06T18:26:35;7.05;;;4.85;;
18125;SDS011;53956;52.442;13.284;2023-08-06T18:29:03;7.82;;;4.70;;
18125;SDS011;53956;52.442;13.284;2023-08-06T18:31:30;7.32;;;5.10;;
18125;SDS011;53956;52.442;13.284;2023-08-06T18:33:56;8.88;;;5.07;;
18125;SDS011;53956;52.442;13.284;2023-08-06T18:36:23;6.55;;;5.05;;
18125;SDS011;53956;52.442;13.284;2023-08-06T18:38:49;8.07;;;5.55;;
18125;SDS011;53956;52.442;13.284;2023-08-06T18:41:16;8.90;;;5.60;;
18125;SDS011;53956;52.442;13.284;2023-08-06T18:43:43;9.35;;;6.35;;
18125;SDS011;53956;52.442;13.284;2023-08-06T18:46:12;8.90;;;5.90;;
18125;SDS011;53956;52.442;13.284;2023-08-06T18:48:38;9.07;;;5.80;;
18125;SDS011;53956;52.442;13.284;2023-08-06T18:51:05;7.32;;;6.10;;
18125;SDS011;53956;52.442;13.284;2023-08-06T18:53:31;11.48;;;6.40;;
18125;SDS011;53956;52.442;13.284;2023-08-06T18:55:58;9.68;;;6.78;;
18125;SDS011;53956;52.442;13.284;2023-08-06T18:58:25;8.50;;;7.20;;
18125;SDS011;53956;52.442;13.284;2023-08-06T19:00:55;8.02;;;6.68;;
18125;SDS011;53956;52.442;13.284;2023-08-06T19:03:23;9.23;;;6.30;;
18125;SDS011;53956;52.442;13.284;2023-08-06T19:05:50;8.13;;;6.80;;
18125;SDS011;53956;52.442;13.284;2023-08-06T19:08:17;10.25;;;7.30;;
18125;SDS011;53956;52.442;13.284;2023-08-06T19:10:45;8.38;;;6.70;;
18125;SDS011;53956;52.442;13.284;2023-08-06T19:13:12;10.65;;;7.10;;
18125;SDS011;53956;52.442;13.284;2023-08-06T19:15:39;9.40;;;7.85;;
18125;SDS011;53956;52.442;13.284;2023-08-06T19:18:11;10.57;;;7.72;;
18125;SDS011;53956;52.442;13.284;2023-08-06T19:20:41;8.93;;;7.07;;
18125;SDS011;53956;52.442;13.284;2023-08-06T19:23:08;12.10;;;7.63;;
18125;SDS011;53956;52.442;13.284;2023-08-06T19:25:40;9.70;;;7.00;;
18125;SDS011;53956;52.442;13.284;2023-08-06T19:28:08;9.57;;;7.25;;
18125;SDS011;53956;52.442;13.284;2023-08-06T19:30:36;11.02;;;7.45;;
18125;SDS011;53956;52.442;13.284;2023-08-06T19:33:05;12.25;;;7.38;;
18125;SDS011;53956;52.442;13.284;2023-08-06T19:35:32;9.45;;;7.13;;
18125;SDS011;53956;52.442;13.284;2023-08-06T19:38:00;8.90;;;7.47;;
18125;SDS011;53956;52.442;13.284;2023-08-06T19:40:27;9.77;;;6.70;;
18125;SDS011;53956;52.442;13.284;2023-08-06T19:42:54;9.35;;;6.85;;
18125;SDS011;53956;52.442;13.284;2023-08-06T19:45:21;9.30;;;7.38;;
18125;SDS011;53956;52.442;13.284;2023-08-06T19:47:47;8.90;;;7.20;;
18125;SDS011;53956;52.442;13.284;2023-08-06T19:50:14;10.15;;;7.32;;
18125;SDS011;53956;52.442;13.284;2023-08-06T19:52:41;10.80;;;7.80;;
18125;SDS011;53956;52.442;13.284;2023-08-06T19:55:09;10.48;;;7.97;;
18125;SDS011;53956;52.442;13.284;2023-08-06T19:57:36;10.20;;;8.45;;
18125;SDS011;53956;52.442;13.284;2023-08-06T20:00:02;9.98;;;7.85;;
18125;SDS011;53956;52.442;13.284;2023-08-06T20:02:37;11.13;;;8.30;;
18125;SDS011;53956;52.442;13.284;2023-08-06T20:05:04;9.40;;;6.90;;
18125;SDS011;53956;52.442;13.284;2023-08-06T20:07:31;11.32;;;7.25;;
18125;SDS011;53956;52.442;13.284;2023-08-06T20:09:58;10.02;;;6.80;;
18125;SDS011;53956;52.442;13.284;2023-08-06T20:12:26;11.00;;;6.80;;
18125;SDS011;53956;52.442;13.284;2023-08-06T20:14:52;10.15;;;6.47;;
18125;SDS011;53956;52.442;13.284;2023-08-06T20:17:19;11.35;;;6.57;;
18125;SDS011;53956;52.442;13.284;2023-08-06T20:19:46;10.18;;;6.80;;
18125;SDS011;53956;52.442;13.284;2023-08-06T20:22:13;9.20;;;6.38;;
18125;SDS011;53956;52.442;13.284;2023-08-06T20:24:39;9.60;;;6.50;;
18125;SDS011;53956;52.442;13.284;2023-08-06T20:27:06;7.03;;;5.95;;
18125;SDS011;53956;52.442;13.284;2023-08-06T20:29:35;7.32;;;5.85;;
18125;SDS011;53956;52.442;13.284;2023-08-06T20:32:01;9.10;;;6.15;;
18125;SDS011;53956;52.442;13.284;2023-08-06T20:34:28;8.13;;;6.20;;
18125;SDS011;53956;52.442;13.284;2023-08-06T20:36:55;8.80;;;6.15;;
18125;SDS011;53956;52.442;13.284;2023-08-06T20:39:23;8.43;;;6.15;;
18125;SDS011;53956;52.442;13.284;2023-08-06T20:41:50;9.65;;;5.53;;
18125;SDS011;53956;52.442;13.284;2023-08-06T20:44:16;7.22;;;5.07;;
18125;SDS011;53956;52.442;13.284;2023-08-06T20:46:44;6.28;;;5.45;;
18125;SDS011;53956;52.442;13.284;2023-08-06T20:49:11;6.88;;;5.18;;
18125;SDS011;53956;52.442;13.284;2023-08-06T20:51:37;6.97;;;4.68;;
18125;SDS011;53956;52.442;13.284;2023-08-06T20:54:04;7.18;;;4.50;;
18125;SDS011;53956;52.442;13.284;2023-08-06T20:56:31;7.88;;;4.35;;
18125;SDS011;53956;52.442;13.284;2023-08-06T20:58:57;5.13;;;3.83;;
18125;SDS011;53956;52.442;13.284;2023-08-06T21:01:24;6.65;;;4.13;;
18125;SDS011;53956;52.442;13.284;2023-08-06T21:03:52;5.45;;;4.25;;
18125;SDS011;53956;52.442;13.284;2023-08-06T21:06:19;5.45;;;4.35;;
18125;SDS011;53956;52.442;13.284;2023-08-06T21:08:45;6.88;;;4.18;;
18125;SDS011;53956;52.442;13.284;2023-08-06T21:11:12;6.03;;;4.25;;
18125;SDS011;53956;52.442;13.284;2023-08-06T21:13:41;6.50;;;3.78;;
18125;SDS011;53956;52.442;13.284;2023-08-06T21:16:08;5.70;;;4.15;;
18125;SDS011;53956;52.442;13.284;2023-08-06T21:18:34;7.97;;;4.20;;